Central Virginia Flyers


Central Virginia Flyers is a 10 member flying club based in Richmond, VA at Hanover County Airport (KOFP). We own N787AT, a 1977 Cessna 172 with 180hp conversion. If you are interested in membership, please contact Brenton at [email protected]


Aviation Digital Data Service (ADDS)

Output produced by METARs form (1907 UTC 03 September 2015)
found at http://aviationweather.gov/adds/metars/
 
KOFP 031854Z AUTO 00000KT 8SM FEW050 33/20 A2990 RMK AO2 SLP123 T03330200
KRIC 031854Z 00000KT 10SM SCT050CB SCT300 33/19 A2989 RMK AO2 SLP122 CB NE MOV E T03330194
KRIC 031847Z 0319/0418 36004KT P6SM VCTS SCT050CB 
     TEMPO 0319/0320 VRB15G20KT 
     FM032000 36004KT P6SM SCT050 
     FM040000 VRB02KT P6SM BKN250 
     FM041400 03007KT P6SM SCT040 SCT250